Time;durP1;ratioP1;P1;durP2;ratioP2;P2;SDS_P1;SDS_P2;PMS_P1;PMS_P2;Temp;Humidity;BMP_temperature;BMP_pressure;BME280_temperature;BME280_humidity;BME280_pressure;Samples;Min_cycle;Max_cycle;Signal;HPM_P1;HPM_P2
2022/02/12 10:12:02;;;;;;;30.40;28.20;;;11.30;99.90;;;;;;5063403;27;20560;-71
2022/02/12 10:14:36;;;;;;;30.13;27.80;;;13.10;99.90;;;;;;5063429;28;20458;-72
2022/02/12 10:17:04;;;;;;;28.60;26.47;;;13.60;99.90;;;;;;5063610;28;20447;-72
2022/02/12 10:19:33;;;;;;;28.47;26.57;;;13.60;99.10;;;;;;5063375;28;20455;-72
2022/02/12 10:22:08;;;;;;;25.97;24.00;;;14.20;99.90;;;;;;5063313;28;20553;-72
2022/02/12 10:24:50;;;;;;;26.10;24.03;;;14.00;96.10;;;;;;5063337;28;20934;-73
2022/02/12 10:27:19;;;;;;;24.93;22.87;;;15.30;96.30;;;;;;5063250;28;20812;-72
2022/02/12 10:29:47;;;;;;;24.43;22.43;;;14.70;95.30;;;;;;5063138;28;21048;-72
2022/02/12 10:32:15;;;;;;;22.87;21.17;;;15.30;95.30;;;;;;5063123;28;20448;-72
2022/02/12 10:34:43;;;;;;;24.50;22.73;;;15.70;92.40;;;;;;5063022;28;20487;-72
2022/02/12 10:37:11;;;;;;;24.60;22.50;;;15.70;92.60;;;;;;5063224;28;20463;-71
2022/02/12 10:39:53;;;;;;;22.53;20.93;;;16.10;90.20;;;;;;5063368;28;20482;-72
2022/02/12 10:42:21;;;;;;;25.33;23.07;;;16.70;90.10;;;;;;5063255;28;20530;-72
2022/02/12 10:44:49;;;;;;;21.67;20.27;;;17.70;84.70;;;;;;5062973;28;20451;-72
2022/02/12 10:47:17;;;;;;;19.93;18.43;;;18.40;77.20;;;;;;5062916;28;20451;-73
2022/02/12 10:49:44;;;;;;;20.70;19.03;;;17.00;77.60;;;;;;5062701;28;20750;-72
2022/02/12 10:52:11;;;;;;;19.80;18.20;;;16.40;79.70;;;;;;5062890;28;20456;-73
2022/02/12 10:54:42;;;;;;;19.27;17.87;;;16.80;79.00;;;;;;5063142;28;20454;-73
2022/02/12 10:57:09;;;;;;;20.13;18.47;;;17.90;76.30;;;;;;5062952;28;20459;-73
2022/02/12 10:59:41;;;;;;;20.47;18.73;;;18.70;74.60;;;;;;5063016;28;20448;-73
2022/02/12 11:02:09;;;;;;;20.37;18.93;;;19.20;70.00;;;;;;5062971;28;20476;-74
2022/02/12 11:04:39;;;;;;;19.40;17.97;;;19.10;69.60;;;;;;5062854;28;20458;-73
2022/02/12 11:07:07;;;;;;;20.43;19.03;;;18.80;68.80;;;;;;5062881;28;20790;-74
2022/02/12 11:09:34;;;;;;;20.77;18.90;;;18.70;67.80;;;;;;5062521;28;20452;-73
2022/02/12 11:12:04;;;;;;;19.90;18.40;;;17.40;68.30;;;;;;5054611;28;20689;-73
2022/02/12 11:14:33;;;;;;;19.37;18.03;;;17.20;69.20;;;;;;5049449;28;20626;-73
2022/02/12 11:17:03;;;;;;;20.00;18.50;;;17.60;67.20;;;;;;5049059;28;20522;-72
2022/02/12 11:19:31;;;;;;;20.77;19.07;;;16.90;69.00;;;;;;5048912;28;20649;-73
2022/02/12 11:21:58;;;;;;;18.27;16.77;;;17.70;67.90;;;;;;5049038;28;20440;-74
2022/02/12 11:24:35;;;;;;;19.37;18.03;;;17.60;68.10;;;;;;5049214;28;20452;-74
2022/02/12 11:27:14;;;;;;;20.30;18.10;;;17.50;66.10;;;;;;5048815;28;20479;-73
2022/02/12 11:29:42;;;;;;;14.37;13.37;;;15.80;66.00;;;;;;5048865;28;20438;-73
2022/02/12 11:32:13;;;;;;;14.83;13.83;;;14.50;62.70;;;;;;5049074;28;20508;-72
2022/02/12 11:34:45;;;;;;;13.23;12.33;;;13.60;63.90;;;;;;5048993;28;20850;-72
2022/02/12 11:37:17;;;;;;;13.40;12.50;;;11.90;65.80;;;;;;5048568;28;20947;-72
2022/02/12 11:40:10;;;;;;;12.80;12.07;;;11.40;69.00;;;;;;5048638;28;20696;-72
2022/02/12 11:42:43;;;;;;;13.07;12.17;;;10.90;72.60;;;;;;5049003;28;20946;-72
2022/02/12 11:45:29;;;;;;;13.97;11.67;;;10.10;71.00;;;;;;5048678;28;20454;-72
2022/02/12 11:48:14;;;;;;;13.33;12.50;;;10.10;72.20;;;;;;5048562;28;20606;-72
2022/02/12 11:50:46;;;;;;;12.27;11.30;;;10.00;72.70;;;;;;5048586;28;20491;-72
2022/02/12 11:53:34;;;;;;;12.80;12.00;;;9.60;74.30;;;;;;5048544;28;20447;-73
2022/02/12 11:56:02;;;;;;;12.40;11.50;;;9.50;76.20;;;;;;5048525;28;20455;-73
2022/02/12 11:58:48;;;;;;;12.30;11.70;;;10.00;74.80;;;;;;5048432;28;20456;-73
2022/02/12 12:01:50;;;;;;;12.33;11.63;;;10.50;73.50;;;;;;5038727;28;20820;-73
2022/02/12 12:04:21;;;;;;;12.10;11.50;;;11.10;71.90;;;;;;5048377;28;20523;-73
2022/02/12 12:07:21;;;;;;;12.70;11.80;;;11.50;70.20;;;;;;5048266;28;20444;-73
2022/02/12 12:10:15;;;;;;;12.63;11.63;;;11.30;69.40;;;;;;5048002;28;20985;-72
2022/02/12 12:12:42;;;;;;;12.70;12.00;;;11.00;70.80;;;;;;5048379;28;20894;-72
2022/02/12 12:15:18;;;;;;;12.13;11.50;;;11.00;69.70;;;;;;5048334;28;20459;-72
2022/02/12 12:17:44;;;;;;;12.33;11.60;;;11.10;69.10;;;;;;5048037;28;20461;-72
2022/02/12 12:20:13;;;;;;;12.23;11.33;;;11.10;70.60;;;;;;5047995;28;20459;-72
2022/02/12 12:22:39;;;;;;;12.97;12.17;;;11.00;69.60;;;;;;5047624;28;20452;-72
2022/02/12 12:25:07;;;;;;;12.73;12.03;;;10.80;69.90;;;;;;5047816;28;20452;-73
2022/02/12 12:27:34;;;;;;;12.77;11.87;;;10.90;70.30;;;;;;5047954;28;20460;-74
2022/02/12 12:32:56;;;;;;;11.50;10.90;;;9.90;71.60;;;;;;5048000;28;20786;-72
2022/02/12 12:35:25;;;;;;;10.30;9.80;;;10.00;67.90;;;;;;5048056;28;20459;-73
2022/02/12 12:37:54;;;;;;;11.53;10.90;;;10.00;67.80;;;;;;5048145;28;20448;-73
2022/02/12 12:40:27;;;;;;;11.40;10.63;;;9.90;65.90;;;;;;5048097;28;20455;-73
2022/02/12 12:42:59;;;;;;;10.10;9.50;;;9.90;65.70;;;;;;5047959;28;20455;-74
2022/02/12 12:45:26;;;;;;;10.80;10.20;;;10.00;64.70;;;;;;5047825;28;20452;-72
2022/02/12 12:47:56;;;;;;;11.00;10.50;;;9.90;65.60;;;;;;5047919;28;20848;-73
2022/02/12 12:50:24;;;;;;;10.47;10.00;;;10.30;63.50;;;;;;5047932;28;20480;-73
2022/02/12 12:53:01;;;;;;;10.53;9.80;;;10.60;63.30;;;;;;5047962;28;20444;-73
2022/02/12 12:55:28;;;;;;;10.50;10.07;;;10.40;60.50;;;;;;5047576;28;20531;-73
2022/02/12 12:57:55;;;;;;;10.40;9.87;;;10.40;62.70;;;;;;5047558;28;20478;-73
2022/02/12 13:00:24;;;;;;;11.30;10.80;;;10.20;62.00;;;;;;5047771;28;20440;-73
2022/02/12 13:02:52;;;;;;;9.77;9.37;;;10.30;62.10;;;;;;5047379;28;20984;-73
2022/02/12 13:05:26;;;;;;;10.93;10.33;;;9.80;62.30;;;;;;5047369;28;20820;-74
2022/02/12 13:07:54;;;;;;;10.93;10.33;;;9.70;63.90;;;;;;5047554;28;20481;-74
2022/02/12 13:10:24;;;;;;;9.37;8.90;;;9.80;63.30;;;;;;5047246;28;20486;-73
2022/02/12 13:12:51;;;;;;;11.60;10.90;;;10.00;62.70;;;;;;5047431;28;20451;-73
2022/02/12 13:15:24;;;;;;;10.60;10.10;;;10.20;60.70;;;;;;5047315;28;20483;-73
2022/02/12 13:17:53;;;;;;;11.70;11.10;;;10.10;60.80;;;;;;5047239;28;20497;-74
2022/02/12 13:20:22;;;;;;;11.03;10.43;;;10.00;61.90;;;;;;5047187;28;20578;-72
2022/02/12 13:22:55;;;;;;;10.40;10.00;;;9.90;63.70;;;;;;5046911;28;20440;-72
2022/02/12 13:25:22;;;;;;;10.50;10.00;;;9.80;64.10;;;;;;5047369;28;20461;-73
2022/02/12 13:27:50;;;;;;;11.30;10.60;;;9.60;64.40;;;;;;5047138;28;20857;-73
2022/02/12 13:30:23;;;;;;;11.23;10.73;;;9.50;64.60;;;;;;5046846;28;20459;-74
2022/02/12 13:32:51;;;;;;;11.33;10.63;;;9.20;65.20;;;;;;5047072;28;20451;-72
2022/02/12 13:35:19;;;;;;;11.43;10.73;;;8.80;66.00;;;;;;5046544;28;20531;-72
2022/02/12 13:37:50;;;;;;;10.93;10.33;;;8.70;67.00;;;;;;5046717;28;20982;-72
2022/02/12 13:40:23;;;;;;;9.67;9.27;;;8.60;67.40;;;;;;5046955;28;20452;-73
2022/02/12 13:42:53;;;;;;;11.13;10.30;;;8.50;67.70;;;;;;5047011;28;20547;-73
2022/02/12 13:45:22;;;;;;;11.03;10.50;;;8.50;67.90;;;;;;5046944;28;20448;-73
2022/02/12 13:47:49;;;;;;;10.87;10.37;;;8.50;68.20;;;;;;5046630;28;20448;-72
2022/02/12 13:50:19;;;;;;;10.43;9.63;;;8.40;68.60;;;;;;5046769;28;20742;-73
2022/02/12 13:52:54;;;;;;;12.23;11.60;;;8.50;70.10;;;;;;5047100;28;20459;-72
2022/02/12 13:55:23;;;;;;;11.03;10.43;;;8.40;70.50;;;;;;5048318;28;20458;-74
2022/02/12 13:57:49;;;;;;;11.13;10.63;;;8.40;71.20;;;;;;5048464;28;20478;-74
2022/02/12 14:00:17;;;;;;;12.33;11.40;;;8.40;71.30;;;;;;5048635;28;21184;-73
2022/02/12 14:02:45;;;;;;;10.70;10.10;;;8.40;72.10;;;;;;5048408;28;21013;-73
2022/02/12 14:05:12;;;;;;;11.90;11.10;;;8.40;72.80;;;;;;5049338;28;20448;-73
2022/02/12 14:07:39;;;;;;;12.17;11.37;;;8.30;73.00;;;;;;5047748;28;20542;-73
2022/02/12 14:10:07;;;;;;;12.33;11.50;;;8.30;72.60;;;;;;5047067;28;20479;-71
2022/02/12 14:12:35;;;;;;;11.73;11.00;;;8.40;72.70;;;;;;5046329;28;20560;-74
2022/02/12 14:15:02;;;;;;;11.60;10.77;;;8.30;71.80;;;;;;5046360;28;20444;-73
2022/02/12 14:17:29;;;;;;;11.87;11.07;;;8.30;72.20;;;;;;5046607;28;20846;-74
2022/02/12 14:19:56;;;;;;;11.17;10.50;;;8.20;72.60;;;;;;5046749;28;20455;-73
2022/02/12 14:22:23;;;;;;;11.60;11.00;;;8.20;73.30;;;;;;5046587;28;20479;-72
2022/02/12 14:24:49;;;;;;;10.53;10.03;;;8.10;73.60;;;;;;5046372;28;20455;-74
2022/02/12 14:27:16;;;;;;;12.77;11.80;;;8.00;74.30;;;;;;5046257;28;20473;-74
2022/02/12 14:29:44;;;;;;;11.83;11.20;;;8.10;75.30;;;;;;5046050;28;20460;-74
2022/02/12 14:32:11;;;;;;;12.27;11.50;;;8.20;75.70;;;;;;5046017;28;20491;-75
2022/02/12 14:34:38;;;;;;;13.57;11.97;;;8.30;76.40;;;;;;5046361;28;20995;-75
2022/02/12 14:37:05;;;;;;;11.10;10.50;;;8.30;75.50;;;;;;5046369;28;20456;-74
2022/02/12 14:39:32;;;;;;;11.20;10.40;;;8.30;76.50;;;;;;5045993;28;20946;-74
2022/02/12 14:42:00;;;;;;;11.90;11.10;;;8.30;76.80;;;;;;5045915;28;20452;-74
2022/02/12 14:44:27;;;;;;;12.10;11.50;;;8.30;77.40;;;;;;5046094;28;20492;-75
2022/02/12 14:46:55;;;;;;;10.70;10.07;;;8.30;77.20;;;;;;5047458;28;20456;-75
2022/02/12 14:49:21;;;;;;;13.03;11.73;;;8.20;77.40;;;;;;5049842;28;20452;-75
2022/02/12 14:51:48;;;;;;;13.67;12.83;;;8.30;79.00;;;;;;5049259;28;20494;-75
2022/02/12 14:54:15;;;;;;;12.07;11.30;;;8.30;79.00;;;;;;5049474;28;21017;-74
2022/02/12 14:56:42;;;;;;;12.60;11.63;;;8.30;78.30;;;;;;5049311;28;20447;-74
2022/02/12 14:59:08;;;;;;;12.70;11.87;;;8.20;78.30;;;;;;5049604;28;20471;-73
2022/02/12 15:01:35;;;;;;;12.30;11.50;;;8.10;79.30;;;;;;5049366;28;20470;-74
2022/02/12 15:04:04;;;;;;;11.70;10.80;;;8.00;81.20;;;;;;5049311;28;20858;-74
2022/02/12 15:06:30;;;;;;;12.20;11.50;;;8.10;82.20;;;;;;5049062;28;20539;-74
2022/02/12 15:08:57;;;;;;;12.73;11.93;;;8.00;81.40;;;;;;5049181;28;20452;-74
2022/02/12 15:11:24;;;;;;;13.27;12.47;;;8.00;82.10;;;;;;5049114;28;20499;-74
2022/02/12 15:13:51;;;;;;;12.77;11.67;;;8.00;82.10;;;;;;5049391;28;20451;-74
2022/02/12 15:16:18;;;;;;;12.67;11.77;;;8.00;82.60;;;;;;5049140;28;20801;-74
2022/02/12 15:18:44;;;;;;;12.27;11.43;;;7.90;83.20;;;;;;5048900;28;20459;-74
2022/02/12 15:21:13;;;;;;;11.50;10.90;;;7.90;83.50;;;;;;5048885;28;20962;-75
2022/02/12 15:23:39;;;;;;;12.10;11.10;;;7.90;84.30;;;;;;5049188;28;20456;-74
2022/02/12 15:26:07;;;;;;;13.33;12.20;;;7.80;86.40;;;;;;5049201;28;20448;-72
2022/02/12 15:28:34;;;;;;;12.63;11.60;;;7.80;86.40;;;;;;5048988;28;20452;-73
2022/02/12 15:31:01;;;;;;;13.77;12.33;;;7.90;87.20;;;;;;5048803;28;20979;-74
2022/02/12 15:33:28;;;;;;;12.97;12.00;;;7.80;88.10;;;;;;5048874;28;20626;-74
2022/02/12 15:35:55;;;;;;;13.70;12.90;;;7.80;87.70;;;;;;5048827;28;20454;-74
2022/02/12 15:38:25;;;;;;;13.30;12.50;;;7.70;87.30;;;;;;5048853;28;20509;-73
2022/02/12 15:40:53;;;;;;;12.80;12.10;;;7.70;87.60;;;;;;5048910;28;20959;-74
2022/02/12 15:43:20;;;;;;;13.57;12.40;;;7.70;88.60;;;;;;5048833;28;20519;-75
2022/02/12 15:45:47;;;;;;;13.00;12.20;;;7.70;89.10;;;;;;5048833;28;20448;-74
2022/02/12 15:48:14;;;;;;;13.50;12.10;;;7.70;89.50;;;;;;5048459;28;20459;-74
2022/02/12 15:50:42;;;;;;;12.50;11.50;;;7.60;89.00;;;;;;5048556;28;20458;-74
2022/02/12 15:53:11;;;;;;;12.47;11.70;;;7.50;90.00;;;;;;5048659;28;20487;-74
2022/02/12 15:55:39;;;;;;;13.60;12.30;;;7.50;90.00;;;;;;5048844;28;20863;-74
2022/02/12 15:58:06;;;;;;;13.77;12.77;;;7.50;90.40;;;;;;5048572;28;20459;-71
2022/02/12 16:00:33;;;;;;;14.37;13.27;;;7.40;90.50;;;;;;5048415;28;20459;-75
2022/02/12 16:03:00;;;;;;;14.13;13.20;;;7.40;90.70;;;;;;5048336;28;20471;-74
2022/02/12 16:05:27;;;;;;;12.03;11.33;;;7.40;90.80;;;;;;5048248;28;20452;-74
2022/02/12 16:07:54;;;;;;;13.67;12.67;;;7.30;91.20;;;;;;5048578;28;20451;-73
2022/02/12 16:10:21;;;;;;;12.30;11.60;;;7.30;91.40;;;;;;5048207;28;20476;-72
2022/02/12 16:12:52;;;;;;;11.93;11.33;;;7.20;91.50;;;;;;5048294;28;20492;-74
2022/02/12 16:15:21;;;;;;;13.70;12.73;;;7.20;91.30;;;;;;5048319;28;20552;-72
2022/02/12 16:17:47;;;;;;;13.67;12.73;;;7.10;91.40;;;;;;5048067;28;20458;-73
2022/02/12 16:20:14;;;;;;;14.30;13.20;;;7.10;91.30;;;;;;5048123;28;20594;-74
2022/02/12 16:22:41;;;;;;;13.70;12.73;;;7.00;91.50;;;;;;5048159;28;20447;-75
2022/02/12 16:25:08;;;;;;;12.33;11.53;;;6.90;91.70;;;;;;5048327;28;20452;-75
2022/02/12 16:27:35;;;;;;;13.57;12.67;;;6.90;91.70;;;;;;5048000;28;20462;-74
2022/02/12 16:30:05;;;;;;;10.33;9.60;;;6.90;91.60;;;;;;5047975;28;20445;-74
2022/02/12 16:32:32;;;;;;;10.50;9.90;;;6.80;91.70;;;;;;5048099;28;20514;-74
2022/02/12 16:34:59;;;;;;;10.97;10.33;;;6.80;92.00;;;;;;5047861;28;20449;-74
2022/02/12 16:37:26;;;;;;;12.07;11.17;;;6.70;91.90;;;;;;5047807;28;20455;-74
2022/02/12 16:39:52;;;;;;;13.43;11.50;;;6.70;92.10;;;;;;5047988;28;20457;-75
2022/02/12 16:42:20;;;;;;;11.53;10.40;;;6.60;92.40;;;;;;5047968;28;20440;-71
2022/02/12 16:44:46;;;;;;;12.53;11.73;;;6.60;92.70;;;;;;5047801;28;20820;-72
2022/02/12 16:47:14;;;;;;;12.83;11.93;;;6.50;93.00;;;;;;5047636;28;20455;-73
2022/02/12 16:49:42;;;;;;;13.30;12.17;;;6.40;93.30;;;;;;5047599;28;20506;-72
2022/02/12 16:52:09;;;;;;;11.80;11.10;;;6.30;94.10;;;;;;5047593;28;20496;-72
2022/02/12 16:54:36;;;;;;;11.77;10.93;;;6.20;94.60;;;;;;5048038;28;20449;-72
2022/02/12 16:57:03;;;;;;;13.87;12.70;;;6.10;95.20;;;;;;5047657;28;20456;-73
2022/02/12 16:59:30;;;;;;;13.97;13.00;;;6.10;96.00;;;;;;5047387;28;20594;-73
2022/02/12 17:01:57;;;;;;;14.73;13.63;;;6.00;96.70;;;;;;5047174;28;20524;-73
2022/02/12 17:04:25;;;;;;;13.27;11.97;;;5.90;97.50;;;;;;5047570;28;20478;-73
2022/02/12 17:06:52;;;;;;;15.50;14.30;;;5.80;98.50;;;;;;5047650;28;20455;-73
2022/02/12 17:09:19;;;;;;;14.60;13.33;;;5.70;99.10;;;;;;5046838;28;20445;-73
2022/02/12 17:11:46;;;;;;;13.03;12.23;;;5.60;99.50;;;;;;5048832;28;20568;-73
2022/02/12 17:14:13;;;;;;;13.20;11.90;;;5.60;99.80;;;;;;5050880;28;20461;-73
2022/02/12 17:16:40;;;;;;;14.63;13.50;;;5.40;99.90;;;;;;5051383;28;20452;-74
2022/02/12 17:19:06;;;;;;;15.13;13.63;;;5.30;99.90;;;;;;5052054;28;20448;-74
2022/02/12 17:21:34;;;;;;;13.90;13.00;;;5.30;99.90;;;;;;5052781;28;20806;-74
2022/02/12 17:24:01;;;;;;;14.13;12.93;;;5.20;99.90;;;;;;5052342;28;20448;-74
2022/02/12 17:26:28;;;;;;;14.47;13.10;;;5.10;99.90;;;;;;5050800;28;20945;-73
2022/02/12 17:28:55;;;;;;;13.93;12.93;;;5.00;99.90;;;;;;5046884;28;20450;-74
2022/02/12 17:31:21;;;;;;;14.43;13.37;;;4.80;99.90;;;;;;5047071;28;20451;-74
2022/02/12 17:33:48;;;;;;;14.97;13.80;;;4.70;99.90;;;;;;5046889;28;20485;-73
2022/02/12 17:36:15;;;;;;;14.80;13.60;;;4.60;99.90;;;;;;5047069;28;20932;-74
2022/02/12 17:38:44;;;;;;;14.73;13.20;;;4.40;99.90;;;;;;5046983;28;20849;-73
2022/02/12 17:41:12;;;;;;;13.37;12.17;;;4.20;99.90;;;;;;5046993;28;20454;-73
2022/02/12 17:43:40;;;;;;;16.17;14.87;;;4.00;99.90;;;;;;5047072;28;20435;-73
2022/02/12 17:46:07;;;;;;;17.63;16.03;;;3.90;99.90;;;;;;5047095;28;20452;-73
2022/02/12 17:48:36;;;;;;;15.57;14.13;;;3.80;99.90;;;;;;5046979;28;20452;-73
2022/02/12 17:51:03;;;;;;;15.37;13.90;;;3.80;99.90;;;;;;5046884;28;20448;-73
2022/02/12 17:53:30;;;;;;;14.40;13.37;;;3.70;99.90;;;;;;5046582;28;20494;-72
2022/02/12 17:55:58;;;;;;;14.77;13.50;;;3.60;99.90;;;;;;5046878;28;20444;-74
2022/02/12 17:58:25;;;;;;;22.80;18.47;;;3.40;99.90;;;;;;5046797;28;20913;-73
